sensor_id;sensor_type;location;lat;lon;timestamp;pressure;altitude;pressure_sealevel;temperature;humidity
28510;BME280;15723;55.684;37.928;2023-04-10T00:01:14;101020.59;;;9.12;48.93
28510;BME280;15723;55.684;37.928;2023-04-10T00:03:40;101025.00;;;9.14;48.51
28510;BME280;15723;55.684;37.928;2023-04-10T00:06:07;101012.59;;;9.08;48.72
28510;BME280;15723;55.684;37.928;2023-04-10T00:08:33;101018.38;;;9.21;48.87
28510;BME280;15723;55.684;37.928;2023-04-10T00:10:59;101017.31;;;9.25;49.39
28510;BME280;15723;55.684;37.928;2023-04-10T00:13:25;101014.84;;;9.19;49.70
28510;BME280;15723;55.684;37.928;2023-04-10T00:15:51;101021.16;;;9.20;48.96
28510;BME280;15723;55.684;37.928;2023-04-10T00:18:17;101024.00;;;8.95;48.59
28510;BME280;15723;55.684;37.928;2023-04-10T00:20:43;101021.72;;;9.06;47.42
28510;BME280;15723;55.684;37.928;2023-04-10T00:23:09;101025.53;;;8.78;48.06
28510;BME280;15723;55.684;37.928;2023-04-10T00:25:35;101028.81;;;8.87;48.00
28510;BME280;15723;55.684;37.928;2023-04-10T00:28:01;101020.59;;;9.12;48.99
28510;BME280;15723;55.684;37.928;2023-04-10T00:30:27;101033.00;;;8.95;50.35
28510;BME280;15723;55.684;37.928;2023-04-10T00:32:53;101030.44;;;8.91;49.58
28510;BME280;15723;55.684;37.928;2023-04-10T00:35:19;101019.22;;;9.01;49.49
28510;BME280;15723;55.684;37.928;2023-04-10T00:37:45;101025.34;;;8.83;50.12
28510;BME280;15723;55.684;37.928;2023-04-10T00:40:11;101027.03;;;8.86;50.35
28510;BME280;15723;55.684;37.928;2023-04-10T00:42:38;101021.56;;;8.65;51.43
28510;BME280;15723;55.684;37.928;2023-04-10T00:45:05;101033.88;;;8.96;53.40
28510;BME280;15723;55.684;37.928;2023-04-10T00:47:33;101030.03;;;9.01;55.57
28510;BME280;15723;55.684;37.928;2023-04-10T00:50:00;101031.56;;;9.08;55.91
28510;BME280;15723;55.684;37.928;2023-04-10T00:52:26;101029.84;;;8.61;57.86
28510;BME280;15723;55.684;37.928;2023-04-10T00:54:52;101032.19;;;8.46;60.29
28510;BME280;15723;55.684;37.928;2023-04-10T00:57:18;101027.72;;;9.14;57.77
28510;BME280;15723;55.684;37.928;2023-04-10T00:59:44;101028.47;;;8.96;58.30
28510;BME280;15723;55.684;37.928;2023-04-10T01:02:10;101032.00;;;8.74;59.32
28510;BME280;15723;55.684;37.928;2023-04-10T01:04:38;101025.81;;;9.16;57.62
28510;BME280;15723;55.684;37.928;2023-04-10T01:07:08;101020.91;;;9.26;57.89
28510;BME280;15723;55.684;37.928;2023-04-10T01:09:40;101017.91;;;9.33;57.34
28510;BME280;15723;55.684;37.928;2023-04-10T01:14:45;101022.91;;;9.43;57.01
28510;BME280;15723;55.684;37.928;2023-04-10T01:17:19;101030.63;;;8.64;58.12
28510;BME280;15723;55.684;37.928;2023-04-10T01:22:15;101021.09;;;9.21;55.95
28510;BME280;15723;55.684;37.928;2023-04-10T01:30:14;101024.56;;;9.03;57.72
28510;BME280;15723;55.684;37.928;2023-04-10T01:32:42;101028.09;;;9.05;57.59
28510;BME280;15723;55.684;37.928;2023-04-10T01:35:09;101034.09;;;8.90;58.26
28510;BME280;15723;55.684;37.928;2023-04-10T01:37:39;101025.44;;;9.03;57.08
28510;BME280;15723;55.684;37.928;2023-04-10T01:40:09;101027.28;;;9.03;55.61
28510;BME280;15723;55.684;37.928;2023-04-10T01:42:38;101029.09;;;9.24;53.95
28510;BME280;15723;55.684;37.928;2023-04-10T01:45:06;101031.75;;;8.81;53.37
28510;BME280;15723;55.684;37.928;2023-04-10T01:47:34;101031.78;;;9.24;52.02
28510;BME280;15723;55.684;37.928;2023-04-10T01:50:01;101025.28;;;9.30;51.75
28510;BME280;15723;55.684;37.928;2023-04-10T01:52:29;101032.13;;;9.17;52.54
28510;BME280;15723;55.684;37.928;2023-04-10T01:55:04;101026.97;;;9.32;52.06
28510;BME280;15723;55.684;37.928;2023-04-10T01:57:42;101032.06;;;8.96;52.49
28510;BME280;15723;55.684;37.928;2023-04-10T02:00:09;101033.34;;;8.86;52.49
28510;BME280;15723;55.684;37.928;2023-04-10T02:02:40;101031.00;;;8.77;51.85
28510;BME280;15723;55.684;37.928;2023-04-10T02:05:08;101025.41;;;8.82;51.25
28510;BME280;15723;55.684;37.928;2023-04-10T02:07:43;101018.28;;;8.79;51.44
28510;BME280;15723;55.684;37.928;2023-04-10T02:10:24;101019.88;;;8.85;51.18
28510;BME280;15723;55.684;37.928;2023-04-10T02:13:04;101016.00;;;9.14;50.74
28510;BME280;15723;55.684;37.928;2023-04-10T02:15:31;101027.34;;;8.78;51.18
28510;BME280;15723;55.684;37.928;2023-04-10T02:17:57;101020.97;;;9.02;50.67
28510;BME280;15723;55.684;37.928;2023-04-10T02:20:24;101014.03;;;8.95;50.69
28510;BME280;15723;55.684;37.928;2023-04-10T02:22:51;101022.25;;;8.70;51.57
28510;BME280;15723;55.684;37.928;2023-04-10T02:25:18;101025.19;;;8.64;51.67
28510;BME280;15723;55.684;37.928;2023-04-10T02:27:44;101025.13;;;9.11;49.91
28510;BME280;15723;55.684;37.928;2023-04-10T02:30:10;101017.75;;;8.93;49.72
28510;BME280;15723;55.684;37.928;2023-04-10T02:32:37;101023.06;;;8.96;49.62
28510;BME280;15723;55.684;37.928;2023-04-10T02:35:06;101023.56;;;9.05;49.06
28510;BME280;15723;55.684;37.928;2023-04-10T02:37:32;101020.34;;;9.18;48.84
28510;BME280;15723;55.684;37.928;2023-04-10T02:40:01;101023.25;;;9.13;48.87
28510;BME280;15723;55.684;37.928;2023-04-10T02:42:35;101021.03;;;9.23;48.72
28510;BME280;15723;55.684;37.928;2023-04-10T02:45:02;101022.50;;;9.31;48.36
28510;BME280;15723;55.684;37.928;2023-04-10T02:47:34;101020.97;;;9.24;48.71
28510;BME280;15723;55.684;37.928;2023-04-10T02:50:01;101027.25;;;9.47;48.03
28510;BME280;15723;55.684;37.928;2023-04-10T02:52:32;101020.47;;;9.36;48.23
28510;BME280;15723;55.684;37.928;2023-04-10T02:54:58;101030.78;;;9.49;47.84
28510;BME280;15723;55.684;37.928;2023-04-10T02:57:27;101036.13;;;9.72;46.85
28510;BME280;15723;55.684;37.928;2023-04-10T02:59:54;101030.44;;;9.78;46.36
28510;BME280;15723;55.684;37.928;2023-04-10T03:02:22;101037.00;;;9.93;45.98
28510;BME280;15723;55.684;37.928;2023-04-10T03:04:49;101025.63;;;9.85;46.17
28510;BME280;15723;55.684;37.928;2023-04-10T03:07:18;101032.06;;;9.82;47.05
28510;BME280;15723;55.684;37.928;2023-04-10T03:09:45;101038.31;;;10.05;46.07
28510;BME280;15723;55.684;37.928;2023-04-10T03:12:10;101037.59;;;10.21;45.47
28510;BME280;15723;55.684;37.928;2023-04-10T03:14:36;101034.88;;;10.21;45.42
28510;BME280;15723;55.684;37.928;2023-04-10T03:17:02;101032.63;;;10.31;44.96
28510;BME280;15723;55.684;37.928;2023-04-10T03:19:29;101026.97;;;10.36;44.87
28510;BME280;15723;55.684;37.928;2023-04-10T03:21:54;101031.66;;;10.32;45.08
28510;BME280;15723;55.684;37.928;2023-04-10T03:24:20;101027.69;;;10.59;44.29
28510;BME280;15723;55.684;37.928;2023-04-10T03:26:47;101033.25;;;10.56;44.73
28510;BME280;15723;55.684;37.928;2023-04-10T03:29:12;101023.56;;;10.70;44.65
28510;BME280;15723;55.684;37.928;2023-04-10T03:31:44;101029.00;;;10.70;44.33
28510;BME280;15723;55.684;37.928;2023-04-10T03:34:10;101030.63;;;10.55;44.81
28510;BME280;15723;55.684;37.928;2023-04-10T03:36:36;101024.91;;;11.17;43.54
28510;BME280;15723;55.684;37.928;2023-04-10T03:39:02;101022.91;;;11.74;42.56
28510;BME280;15723;55.684;37.928;2023-04-10T03:41:29;101019.56;;;11.86;42.30
28510;BME280;15723;55.684;37.928;2023-04-10T03:43:56;101020.19;;;12.26;41.71
28510;BME280;15723;55.684;37.928;2023-04-10T03:46:22;101010.97;;;13.10;40.41
28510;BME280;15723;55.684;37.928;2023-04-10T03:48:49;101014.91;;;13.52;39.31
28510;BME280;15723;55.684;37.928;2023-04-10T03:51:18;101012.63;;;13.13;39.50
28510;BME280;15723;55.684;37.928;2023-04-10T03:53:44;101011.19;;;12.90;40.52
28510;BME280;15723;55.684;37.928;2023-04-10T03:56:14;101013.13;;;12.88;40.59
28510;BME280;15723;55.684;37.928;2023-04-10T03:58:41;101011.75;;;13.12;40.11
28510;BME280;15723;55.684;37.928;2023-04-10T04:01:07;101012.63;;;13.29;39.87
28510;BME280;15723;55.684;37.928;2023-04-10T04:03:34;101014.75;;;13.24;39.13
28510;BME280;15723;55.684;37.928;2023-04-10T04:06:19;101013.28;;;13.64;38.72
28510;BME280;15723;55.684;37.928;2023-04-10T04:09:10;101001.69;;;13.90;38.40
28510;BME280;15723;55.684;37.928;2023-04-10T04:11:43;101001.81;;;13.27;39.10
28510;BME280;15723;55.684;37.928;2023-04-10T04:14:35;101008.34;;;13.25;39.61
28510;BME280;15723;55.684;37.928;2023-04-10T04:17:22;101010.34;;;13.83;38.74
28510;BME280;15723;55.684;37.928;2023-04-10T04:20:16;100997.47;;;15.00;36.85
28510;BME280;15723;55.684;37.928;2023-04-10T04:22:57;101008.03;;;14.49;37.65
28510;BME280;15723;55.684;37.928;2023-04-10T04:25:40;101007.53;;;14.99;37.21
28510;BME280;15723;55.684;37.928;2023-04-10T04:28:30;101000.66;;;16.65;33.98
28510;BME280;15723;55.684;37.928;2023-04-10T04:31:16;100997.16;;;17.97;32.17
28510;BME280;15723;55.684;37.928;2023-04-10T04:34:02;101002.69;;;18.08;31.67
28510;BME280;15723;55.684;37.928;2023-04-10T04:36:40;101002.44;;;19.13;30.08
28510;BME280;15723;55.684;37.928;2023-04-10T04:39:26;100996.25;;;19.32;29.69
28510;BME280;15723;55.684;37.928;2023-04-10T04:42:05;101012.28;;;19.38;29.41
28510;BME280;15723;55.684;37.928;2023-04-10T04:44:49;101005.72;;;19.73;29.31
28510;BME280;15723;55.684;37.928;2023-04-10T04:47:41;101000.81;;;20.50;27.94
28510;BME280;15723;55.684;37.928;2023-04-10T04:50:16;100997.38;;;20.57;28.36
28510;BME280;15723;55.684;37.928;2023-04-10T04:53:12;101002.88;;;21.78;28.32
28510;BME280;15723;55.684;37.928;2023-04-10T04:55:59;100994.88;;;22.42;27.13
28510;BME280;15723;55.684;37.928;2023-04-10T04:58:46;101000.22;;;22.54;26.63
28510;BME280;15723;55.684;37.928;2023-04-10T05:01:16;100999.28;;;23.19;26.03
28510;BME280;15723;55.684;37.928;2023-04-10T05:04:06;100992.94;;;23.54;25.59
28510;BME280;15723;55.684;37.928;2023-04-10T05:06:52;100989.25;;;23.99;25.31
28510;BME280;15723;55.684;37.928;2023-04-10T05:09:35;100994.16;;;24.67;24.75
28510;BME280;15723;55.684;37.928;2023-04-10T05:12:20;101000.28;;;24.52;24.45
28510;BME280;15723;55.684;37.928;2023-04-10T05:14:53;100996.94;;;24.92;23.46
28510;BME280;15723;55.684;37.928;2023-04-10T05:17:55;100995.59;;;23.74;24.94
28510;BME280;15723;55.684;37.928;2023-04-10T05:20:39;101003.28;;;24.33;24.22
28510;BME280;15723;55.684;37.928;2023-04-10T05:23:19;100989.22;;;25.54;23.36
28510;BME280;15723;55.684;37.928;2023-04-10T05:26:04;100989.53;;;24.75;23.60
28510;BME280;15723;55.684;37.928;2023-04-10T05:28:56;100995.94;;;24.76;24.28
28510;BME280;15723;55.684;37.928;2023-04-10T05:31:35;100992.97;;;25.79;22.55
28510;BME280;15723;55.684;37.928;2023-04-10T05:34:10;100993.34;;;24.13;23.85
28510;BME280;15723;55.684;37.928;2023-04-10T05:37:02;100997.34;;;24.28;23.83
28510;BME280;15723;55.684;37.928;2023-04-10T05:39:52;101000.50;;;23.97;24.70
28510;BME280;15723;55.684;37.928;2023-04-10T05:42:51;100997.16;;;25.41;22.92
28510;BME280;15723;55.684;37.928;2023-04-10T05:45:31;101002.69;;;26.73;22.06
28510;BME280;15723;55.684;37.928;2023-04-10T05:48:26;101000.75;;;27.45;21.20
28510;BME280;15723;55.684;37.928;2023-04-10T05:51:19;100993.63;;;27.74;20.84
28510;BME280;15723;55.684;37.928;2023-04-10T05:54:05;100994.66;;;27.41;20.75
28510;BME280;15723;55.684;37.928;2023-04-10T05:56:51;100992.78;;;28.19;20.28
28510;BME280;15723;55.684;37.928;2023-04-10T05:59:30;100995.66;;;27.88;20.23
28510;BME280;15723;55.684;37.928;2023-04-10T06:02:18;100994.25;;;29.19;19.17
28510;BME280;15723;55.684;37.928;2023-04-10T06:04:48;100988.56;;;28.23;19.97
28510;BME280;15723;55.684;37.928;2023-04-10T06:07:23;100985.66;;;29.21;18.31
28510;BME280;15723;55.684;37.928;2023-04-10T06:09:49;100995.41;;;30.55;18.11
28510;BME280;15723;55.684;37.928;2023-04-10T06:12:18;100996.00;;;30.07;18.29
28510;BME280;15723;55.684;37.928;2023-04-10T06:14:46;100992.16;;;27.55;20.00
28510;BME280;15723;55.684;37.928;2023-04-10T06:17:18;101001.31;;;27.71;20.52
28510;BME280;15723;55.684;37.928;2023-04-10T06:19:46;100996.13;;;27.29;20.04
28510;BME280;15723;55.684;37.928;2023-04-10T06:22:12;101002.34;;;25.86;22.05
28510;BME280;15723;55.684;37.928;2023-04-10T06:24:39;100999.97;;;24.29;23.18
28510;BME280;15723;55.684;37.928;2023-04-10T06:27:05;101005.00;;;25.46;21.95
28510;BME280;15723;55.684;37.928;2023-04-10T06:29:31;101002.97;;;24.18;22.94
28510;BME280;15723;55.684;37.928;2023-04-10T06:31:57;101009.28;;;22.93;24.54
28510;BME280;15723;55.684;37.928;2023-04-10T06:34:23;101010.34;;;23.47;24.39
28510;BME280;15723;55.684;37.928;2023-04-10T06:37:01;101016.72;;;22.26;25.23
28510;BME280;15723;55.684;37.928;2023-04-10T06:39:27;101021.44;;;19.39;28.72
28510;BME280;15723;55.684;37.928;2023-04-10T06:41:55;101020.44;;;19.17;29.07
28510;BME280;15723;55.684;37.928;2023-04-10T06:44:43;101011.50;;;20.43;28.07
28510;BME280;15723;55.684;37.928;2023-04-10T06:47:09;101020.91;;;19.56;29.19
28510;BME280;15723;55.684;37.928;2023-04-10T06:49:35;101030.59;;;18.72;30.26
28510;BME280;15723;55.684;37.928;2023-04-10T06:52:01;101017.75;;;20.24;28.18
28510;BME280;15723;55.684;37.928;2023-04-10T06:54:27;101024.41;;;20.22;28.29
28510;BME280;15723;55.684;37.928;2023-04-10T06:56:55;101030.78;;;18.58;30.64
28510;BME280;15723;55.684;37.928;2023-04-10T06:59:23;101026.25;;;18.34;31.21
28510;BME280;15723;55.684;37.928;2023-04-10T07:01:49;101027.63;;;19.63;29.09
28510;BME280;15723;55.684;37.928;2023-04-10T07:04:15;101023.47;;;19.14;29.96
28510;BME280;15723;55.684;37.928;2023-04-10T07:06:41;101030.81;;;18.11;31.41
28510;BME280;15723;55.684;37.928;2023-04-10T07:09:07;101026.97;;;18.83;30.45
28510;BME280;15723;55.684;37.928;2023-04-10T07:11:33;101026.44;;;19.33;29.42
28510;BME280;15723;55.684;37.928;2023-04-10T07:13:58;101024.50;;;18.33;31.58
28510;BME280;15723;55.684;37.928;2023-04-10T07:16:24;101023.88;;;19.75;29.54
28510;BME280;15723;55.684;37.928;2023-04-10T07:18:50;101020.97;;;20.09;28.42
28510;BME280;15723;55.684;37.928;2023-04-10T07:21:16;101017.69;;;20.56;27.86
28510;BME280;15723;55.684;37.928;2023-04-10T07:23:42;101017.56;;;21.19;28.44
28510;BME280;15723;55.684;37.928;2023-04-10T07:26:08;101022.94;;;20.59;28.11
28510;BME280;15723;55.684;37.928;2023-04-10T07:28:34;101020.44;;;22.54;26.05
28510;BME280;15723;55.684;37.928;2023-04-10T07:31:01;101014.28;;;22.80;25.25
28510;BME280;15723;55.684;37.928;2023-04-10T07:33:26;101013.63;;;23.60;24.90
28510;BME280;15723;55.684;37.928;2023-04-10T07:35:52;101014.38;;;24.33;23.61
28510;BME280;15723;55.684;37.928;2023-04-10T07:38:18;101002.22;;;25.46;22.57
28510;BME280;15723;55.684;37.928;2023-04-10T07:40:45;101008.81;;;24.15;23.28
28510;BME280;15723;55.684;37.928;2023-04-10T07:43:11;101004.94;;;24.26;23.62
28510;BME280;15723;55.684;37.928;2023-04-10T07:45:37;101018.31;;;22.38;25.83
28510;BME280;15723;55.684;37.928;2023-04-10T07:48:03;101016.66;;;22.55;24.81
28510;BME280;15723;55.684;37.928;2023-04-10T07:50:30;101004.81;;;23.19;24.56
28510;BME280;15723;55.684;37.928;2023-04-10T07:52:56;101016.00;;;22.14;25.93
28510;BME280;15723;55.684;37.928;2023-04-10T07:55:22;101009.13;;;22.28;25.76
28510;BME280;15723;55.684;37.928;2023-04-10T07:57:48;101005.81;;;21.96;25.71
28510;BME280;15723;55.684;37.928;2023-04-10T08:00:16;101005.22;;;22.40;25.64
28510;BME280;15723;55.684;37.928;2023-04-10T08:02:42;101009.13;;;21.61;26.11
28510;BME280;15723;55.684;37.928;2023-04-10T08:05:08;101002.88;;;21.68;26.40
28510;BME280;15723;55.684;37.928;2023-04-10T08:07:34;101015.00;;;22.91;25.09
28510;BME280;15723;55.684;37.928;2023-04-10T08:10:01;101000.41;;;21.75;26.63
28510;BME280;15723;55.684;37.928;2023-04-10T08:12:28;101000.13;;;21.97;26.10
28510;BME280;15723;55.684;37.928;2023-04-10T08:14:54;101003.75;;;21.98;26.43
28510;BME280;15723;55.684;37.928;2023-04-10T08:17:20;101004.59;;;22.46;25.55
28510;BME280;15723;55.684;37.928;2023-04-10T08:19:53;101006.78;;;22.53;25.05
28510;BME280;15723;55.684;37.928;2023-04-10T08:22:19;101005.06;;;22.23;25.48
28510;BME280;15723;55.684;37.928;2023-04-10T08:24:45;100996.91;;;21.82;26.45
28510;BME280;15723;55.684;37.928;2023-04-10T08:27:11;101004.03;;;22.43;25.89
28510;BME280;15723;55.684;37.928;2023-04-10T08:29:38;101000.00;;;23.21;24.73
28510;BME280;15723;55.684;37.928;2023-04-10T08:32:04;101001.91;;;22.08;26.45
28510;BME280;15723;55.684;37.928;2023-04-10T08:34:30;100991.00;;;22.82;25.23
28510;BME280;15723;55.684;37.928;2023-04-10T08:36:56;100993.63;;;22.64;24.98
28510;BME280;15723;55.684;37.928;2023-04-10T08:39:22;100983.13;;;23.42;23.96
28510;BME280;15723;55.684;37.928;2023-04-10T08:41:48;100982.09;;;23.43;24.08
28510;BME280;15723;55.684;37.928;2023-04-10T08:44:14;100992.84;;;22.25;25.06
28510;BME280;15723;55.684;37.928;2023-04-10T08:46:41;100984.28;;;22.85;24.96
28510;BME280;15723;55.684;37.928;2023-04-10T08:49:09;100985.56;;;22.24;25.02
28510;BME280;15723;55.684;37.928;2023-04-10T08:51:36;100974.59;;;22.98;23.98
28510;BME280;15723;55.684;37.928;2023-04-10T08:54:09;100970.59;;;23.83;23.06
28510;BME280;15723;55.684;37.928;2023-04-10T08:56:40;100970.56;;;23.65;23.10
28510;BME280;15723;55.684;37.928;2023-04-10T08:59:07;100971.63;;;22.82;23.88
28510;BME280;15723;55.684;37.928;2023-04-10T09:01:33;100964.78;;;23.04;24.34
28510;BME280;15723;55.684;37.928;2023-04-10T09:04:00;100970.44;;;21.80;25.89
28510;BME280;15723;55.684;37.928;2023-04-10T09:06:26;100966.22;;;22.34;25.16
28510;BME280;15723;55.684;37.928;2023-04-10T09:08:52;100968.69;;;21.98;25.44
28510;BME280;15723;55.684;37.928;2023-04-10T09:11:18;100985.28;;;22.37;24.98
28510;BME280;15723;55.684;37.928;2023-04-10T09:13:44;100970.59;;;21.78;25.73
28510;BME280;15723;55.684;37.928;2023-04-10T09:16:12;100960.69;;;21.76;26.70
28510;BME280;15723;55.684;37.928;2023-04-10T09:18:42;100970.88;;;21.85;26.73
28510;BME280;15723;55.684;37.928;2023-04-10T09:21:12;100980.00;;;22.43;25.84
28510;BME280;15723;55.684;37.928;2023-04-10T09:23:39;100975.81;;;22.20;25.30
28510;BME280;15723;55.684;37.928;2023-04-10T09:26:48;100961.56;;;21.86;26.60
28510;BME280;15723;55.684;37.928;2023-04-10T09:29:01;100964.03;;;21.99;25.91
28510;BME280;15723;55.684;37.928;2023-04-10T09:31:34;100964.03;;;21.99;26.07
28510;BME280;15723;55.684;37.928;2023-04-10T09:34:11;100956.31;;;21.83;26.10
28510;BME280;15723;55.684;37.928;2023-04-10T09:36:38;100954.84;;;22.27;26.21
28510;BME280;15723;55.684;37.928;2023-04-10T09:39:05;100957.19;;;21.83;26.60
28510;BME280;15723;55.684;37.928;2023-04-10T09:41:32;100952.59;;;22.50;25.59
28510;BME280;15723;55.684;37.928;2023-04-10T09:44:05;100953.00;;;21.60;25.40
28510;BME280;15723;55.684;37.928;2023-04-10T09:46:32;100950.81;;;21.04;27.75
28510;BME280;15723;55.684;37.928;2023-04-10T09:48:58;100951.78;;;21.24;27.54
28510;BME280;15723;55.684;37.928;2023-04-10T09:51:29;100950.34;;;21.88;26.44
28510;BME280;15723;55.684;37.928;2023-04-10T09:53:56;100950.78;;;21.83;25.76
28510;BME280;15723;55.684;37.928;2023-04-10T09:56:22;100943.41;;;21.93;25.81
28510;BME280;15723;55.684;37.928;2023-04-10T09:58:50;100937.09;;;22.67;25.62
28510;BME280;15723;55.684;37.928;2023-04-10T10:01:18;100949.34;;;21.98;25.45
28510;BME280;15723;55.684;37.928;2023-04-10T10:03:45;100946.72;;;22.63;25.02
28510;BME280;15723;55.684;37.928;2023-04-10T10:06:11;100951.97;;;22.09;25.08
28510;BME280;15723;55.684;37.928;2023-04-10T10:08:37;100947.88;;;21.84;25.30
28510;BME280;15723;55.684;37.928;2023-04-10T10:11:04;100943.09;;;21.67;25.15
28510;BME280;15723;55.684;37.928;2023-04-10T10:13:36;100952.25;;;21.77;25.15
28510;BME280;15723;55.684;37.928;2023-04-10T10:21:01;100947.16;;;21.44;25.16
28510;BME280;15723;55.684;37.928;2023-04-10T10:23:28;100951.63;;;21.26;25.22
28510;BME280;15723;55.684;37.928;2023-04-10T10:25:56;100940.84;;;21.22;25.49
28510;BME280;15723;55.684;37.928;2023-04-10T10:28:22;100937.28;;;21.70;24.61
28510;BME280;15723;55.684;37.928;2023-04-10T10:30:49;100948.75;;;21.37;24.89
28510;BME280;15723;55.684;37.928;2023-04-10T10:33:16;100934.22;;;21.44;24.96
28510;BME280;15723;55.684;37.928;2023-04-10T10:35:42;100928.16;;;21.10;25.62
28510;BME280;15723;55.684;37.928;2023-04-10T10:38:08;100935.81;;;20.57;26.04
28510;BME280;15723;55.684;37.928;2023-04-10T10:40:44;100932.78;;;20.60;26.69
28510;BME280;15723;55.684;37.928;2023-04-10T10:43:16;100918.88;;;20.71;26.63
28510;BME280;15723;55.684;37.928;2023-04-10T10:45:51;100926.09;;;20.53;27.60
28510;BME280;15723;55.684;37.928;2023-04-10T10:48:19;100917.31;;;20.78;26.56
28510;BME280;15723;55.684;37.928;2023-04-10T10:58:48;100913.53;;;20.79;25.95
28510;BME280;15723;55.684;37.928;2023-04-10T11:01:15;100910.97;;;20.26;26.81
28510;BME280;15723;55.684;37.928;2023-04-10T11:03:41;100912.22;;;20.43;26.94
28510;BME280;15723;55.684;37.928;2023-04-10T11:06:14;100913.47;;;20.09;27.46
28510;BME280;15723;55.684;37.928;2023-04-10T11:08:48;100907.25;;;20.68;26.78
28510;BME280;15723;55.684;37.928;2023-04-10T11:11:21;100913.47;;;20.39;27.53
28510;BME280;15723;55.684;37.928;2023-04-10T11:16:43;100914.13;;;20.01;27.43
28510;BME280;15723;55.684;37.928;2023-04-10T11:19:09;100913.50;;;19.56;28.55
28510;BME280;15723;55.684;37.928;2023-04-10T11:24:23;100912.53;;;19.46;28.27
28510;BME280;15723;55.684;37.928;2023-04-10T11:26:48;100910.88;;;19.54;28.14
28510;BME280;15723;55.684;37.928;2023-04-10T11:31:42;100905.97;;;18.71;29.36
28510;BME280;15723;55.684;37.928;2023-04-10T11:34:09;100906.41;;;19.95;27.95
28510;BME280;15723;55.684;37.928;2023-04-10T11:36:39;100905.53;;;19.42;28.53
28510;BME280;15723;55.684;37.928;2023-04-10T11:39:06;100902.31;;;20.62;26.91
28510;BME280;15723;55.684;37.928;2023-04-10T11:41:39;100886.94;;;20.69;27.16
28510;BME280;15723;55.684;37.928;2023-04-10T11:44:06;100899.16;;;20.76;26.99
28510;BME280;15723;55.684;37.928;2023-04-10T11:46:36;100886.03;;;20.38;28.04
28510;BME280;15723;55.684;37.928;2023-04-10T11:49:03;100904.31;;;21.09;27.55
28510;BME280;15723;55.684;37.928;2023-04-10T11:51:29;100903.50;;;20.17;27.98
28510;BME280;15723;55.684;37.928;2023-04-10T11:54:09;100900.41;;;19.69;28.68
28510;BME280;15723;55.684;37.928;2023-04-10T11:56:39;100900.09;;;20.35;28.06
28510;BME280;15723;55.684;37.928;2023-04-10T11:59:05;100904.53;;;19.95;28.10
28510;BME280;15723;55.684;37.928;2023-04-10T12:01:35;100909.56;;;20.11;27.66
28510;BME280;15723;55.684;37.928;2023-04-10T12:04:01;100904.03;;;20.32;27.72
28510;BME280;15723;55.684;37.928;2023-04-10T12:06:27;100909.19;;;18.77;28.80
28510;BME280;15723;55.684;37.928;2023-04-10T12:08:53;100903.19;;;18.27;29.60
28510;BME280;15723;55.684;37.928;2023-04-10T12:11:21;100918.31;;;18.99;28.56
28510;BME280;15723;55.684;37.928;2023-04-10T12:13:50;100923.94;;;17.73;31.79
28510;BME280;15723;55.684;37.928;2023-04-10T12:16:16;100911.56;;;17.20;33.44
28510;BME280;15723;55.684;37.928;2023-04-10T12:18:42;100915.25;;;16.58;34.78
28510;BME280;15723;55.684;37.928;2023-04-10T12:21:09;100914.59;;;16.80;34.78
28510;BME280;15723;55.684;37.928;2023-04-10T12:23:36;100925.03;;;15.86;36.49
28510;BME280;15723;55.684;37.928;2023-04-10T12:26:11;100931.41;;;16.00;36.85
28510;BME280;15723;55.684;37.928;2023-04-10T12:28:38;100938.94;;;15.96;37.01
28510;BME280;15723;55.684;37.928;2023-04-10T12:31:04;100936.75;;;15.88;37.40
28510;BME280;15723;55.684;37.928;2023-04-10T12:33:30;100941.78;;;15.82;38.16
28510;BME280;15723;55.684;37.928;2023-04-10T12:35:56;100946.31;;;15.29;39.59
28510;BME280;15723;55.684;37.928;2023-04-10T12:38:40;100943.94;;;15.37;39.44
28510;BME280;15723;55.684;37.928;2023-04-10T12:41:07;100948.69;;;14.94;40.57
28510;BME280;15723;55.684;37.928;2023-04-10T12:43:34;100957.88;;;14.36;42.25
28510;BME280;15723;55.684;37.928;2023-04-10T12:46:00;100955.16;;;14.22;43.09
28510;BME280;15723;55.684;37.928;2023-04-10T12:48:27;100957.66;;;14.39;43.06
28510;BME280;15723;55.684;37.928;2023-04-10T12:50:53;100954.06;;;14.38;43.45
28510;BME280;15723;55.684;37.928;2023-04-10T12:53:19;100962.19;;;13.82;44.82
28510;BME280;15723;55.684;37.928;2023-04-10T12:56:04;100963.19;;;13.81;46.06
28510;BME280;15723;55.684;37.928;2023-04-10T12:58:31;100959.09;;;13.88;45.46
28510;BME280;15723;55.684;37.928;2023-04-10T13:01:04;100961.94;;;14.00;45.22
28510;BME280;15723;55.684;37.928;2023-04-10T13:03:32;100959.75;;;13.77;46.02
28510;BME280;15723;55.684;37.928;2023-04-10T13:05:58;100964.41;;;13.75;46.86
28510;BME280;15723;55.684;37.928;2023-04-10T13:08:24;100961.94;;;13.56;50.97
28510;BME280;15723;55.684;37.928;2023-04-10T13:10:50;100968.13;;;12.97;51.58
28510;BME280;15723;55.684;37.928;2023-04-10T13:13:16;100976.41;;;12.79;52.78
28510;BME280;15723;55.684;37.928;2023-04-10T13:15:42;100966.03;;;13.02;53.39
28510;BME280;15723;55.684;37.928;2023-04-10T13:18:09;100959.25;;;12.77;52.68
28510;BME280;15723;55.684;37.928;2023-04-10T13:20:36;100960.13;;;12.94;52.95
28510;BME280;15723;55.684;37.928;2023-04-10T13:23:02;100957.69;;;13.05;53.67
28510;BME280;15723;55.684;37.928;2023-04-10T13:25:32;100951.09;;;12.77;54.48
28510;BME280;15723;55.684;37.928;2023-04-10T13:27:59;100958.31;;;12.30;55.59
28510;BME280;15723;55.684;37.928;2023-04-10T13:30:25;100961.84;;;12.47;55.76